createdAt,value
2019-03-05T00:01:54.166Z,74.80
2019-03-05T00:06:05.492Z,75.00
2019-03-05T00:10:18.819Z,75.10
2019-03-05T00:14:30.643Z,75.00
2019-03-05T00:18:41.804Z,75.30
2019-03-05T00:22:53.124Z,75.60
2019-03-05T00:27:04.237Z,75.90
2019-03-05T00:31:18.500Z,75.80
2019-03-05T00:35:41.536Z,75.30
2019-03-05T00:40:23.501Z,75.30
2019-03-05T00:45:06.471Z,75.00
2019-03-05T00:49:23.495Z,74.20
2019-03-05T00:54:14.165Z,74.30
2019-03-05T00:58:31.356Z,74.50
2019-03-05T01:02:55.357Z,74.50
2019-03-05T01:07:06.555Z,74.20
2019-03-05T01:11:18.694Z,74.50
2019-03-05T01:15:30.371Z,74.70
2019-03-05T01:19:41.517Z,74.60
2019-03-05T01:23:52.749Z,74.40
2019-03-05T01:28:04.307Z,74.40
2019-03-05T01:32:35.517Z,74.10
2019-03-05T01:36:48.416Z,73.60
2019-03-05T01:41:01.183Z,73.30
2019-03-05T01:45:12.985Z,73.20
2019-03-05T01:49:24.151Z,73.40
2019-03-05T01:53:35.265Z,73.50
2019-03-05T01:57:46.440Z,73.50
2019-03-05T02:01:57.655Z,74.20
2019-03-05T02:06:08.876Z,73.50
2019-03-05T02:10:22.259Z,73.90
2019-03-05T02:14:34.588Z,74.20
2019-03-05T02:18:45.889Z,74.10
2019-03-05T02:23:03.026Z,74.40
2019-03-05T02:27:49.246Z,74.70
2019-03-05T02:32:20.247Z,74.80
2019-03-05T02:37:08.176Z,75.20
2019-03-05T02:41:34.515Z,75.60
2019-03-05T02:45:51.701Z,76.00
2019-03-05T02:50:39.716Z,76.80
2019-03-05T02:55:02.644Z,75.90
2019-03-05T02:59:12.715Z,75.80
2019-03-05T03:03:30.977Z,75.60
2019-03-05T03:07:42.187Z,75.70
2019-03-05T03:11:53.527Z,75.40
2019-03-05T03:16:04.645Z,75.80
2019-03-05T03:20:16.491Z,76.10
2019-03-05T03:24:27.840Z,76.30
2019-03-05T03:28:39.100Z,76.40
2019-03-05T03:32:50.215Z,76.60
2019-03-05T03:37:01.329Z,76.30
2019-03-05T03:41:13.248Z,76.20
2019-03-05T03:45:24.654Z,76.10
2019-03-05T03:49:35.911Z,75.60
2019-03-05T03:53:47.129Z,75.80
2019-03-05T03:57:58.365Z,75.50
2019-03-05T04:02:09.612Z,75.30
2019-03-05T04:06:20.740Z,74.80
2019-03-05T04:10:31.859Z,74.50
2019-03-05T04:14:43.122Z,74.10
2019-03-05T04:18:54.257Z,72.90
2019-03-05T04:23:06.740Z,72.50
2019-03-05T04:27:17.991Z,72.70
2019-03-05T04:31:29.372Z,71.30
2019-03-05T04:35:40.601Z,71.10
2019-03-05T04:39:51.888Z,70.90
2019-03-05T04:44:03.247Z,70.90
2019-03-05T04:48:14.598Z,70.50
2019-03-05T04:52:26.196Z,69.90
2019-03-05T04:56:37.373Z,69.90
2019-03-05T05:00:48.610Z,69.90
2019-03-05T05:04:59.961Z,69.90
2019-03-05T05:09:11.756Z,69.90
2019-03-05T05:13:25.180Z,70.80
2019-03-05T05:17:36.483Z,70.80
2019-03-05T05:21:48.128Z,72.60
2019-03-05T05:25:59.410Z,72.30
2019-03-05T05:30:36.414Z,72.00
2019-03-05T05:34:47.784Z,72.10
2019-03-05T05:38:58.908Z,71.50
2019-03-05T05:43:13.232Z,70.90
2019-03-05T05:47:24.392Z,70.80
2019-03-05T05:51:35.651Z,70.90
2019-03-05T05:55:46.755Z,71.10
2019-03-05T05:59:57.965Z,70.40
2019-03-05T06:04:08.631Z,70.30
2019-03-05T06:08:19.976Z,70.80
2019-03-05T06:12:31.127Z,71.10
2019-03-05T06:16:42.489Z,71.40
2019-03-05T06:20:53.819Z,71.90
2019-03-05T06:25:06.874Z,71.90
2019-03-05T06:29:18.796Z,72.00
2019-03-05T06:33:29.953Z,71.80
2019-03-05T06:37:41.140Z,71.80
2019-03-05T06:41:53.774Z,73.10
2019-03-05T06:46:05.094Z,72.70
2019-03-05T06:50:23.500Z,72.90
2019-03-05T06:54:34.742Z,72.90
2019-03-05T06:58:45.896Z,71.70
2019-03-05T07:02:57.159Z,72.00
2019-03-05T07:07:08.605Z,71.90
2019-03-05T07:11:40.840Z,71.90
2019-03-05T07:15:55.059Z,71.30
2019-03-05T07:20:25.747Z,71.90
2019-03-05T07:24:42.755Z,72.00
2019-03-05T07:28:53.916Z,72.30
2019-03-05T07:33:05.467Z,71.80
2019-03-05T07:37:16.617Z,71.10
2019-03-05T07:41:27.743Z,70.60
2019-03-05T07:45:38.960Z,70.00
2019-03-05T07:49:50.196Z,67.70
2019-03-05T07:54:02.962Z,67.00
2019-03-05T07:58:14.416Z,66.70
2019-03-05T08:02:25.695Z,65.40
2019-03-05T08:06:36.807Z,65.10
2019-03-05T08:10:47.948Z,66.20
2019-03-05T08:15:02.340Z,67.00
2019-03-05T08:19:13.707Z,67.50
2019-03-05T08:23:26.170Z,67.80
2019-03-05T08:27:37.455Z,68.20
2019-03-05T08:31:48.964Z,68.70
2019-03-05T08:36:01.512Z,69.40
2019-03-05T08:40:15.377Z,69.80
2019-03-05T08:44:26.484Z,70.20
2019-03-05T08:48:37.826Z,70.30
2019-03-05T08:52:48.951Z,70.30
2019-03-05T08:57:00.084Z,70.60
2019-03-05T09:01:12.237Z,71.90
2019-03-05T09:05:23.388Z,72.50
2019-03-05T09:09:34.499Z,73.00
2019-03-05T09:13:45.753Z,72.70
2019-03-05T09:17:57.945Z,71.90
2019-03-05T09:22:09.248Z,71.40
2019-03-05T09:26:20.374Z,69.70
2019-03-05T09:30:33.783Z,70.00
2019-03-05T09:34:45.459Z,69.00
2019-03-05T09:38:56.608Z,67.80
2019-03-05T09:43:07.769Z,67.00
2019-03-05T09:47:19.032Z,65.90
2019-03-05T09:51:30.315Z,66.20
2019-03-05T09:55:41.678Z,66.40
2019-03-05T09:59:51.863Z,65.10
2019-03-05T10:04:03.404Z,65.50
2019-03-05T10:08:15.192Z,64.60
2019-03-05T10:12:26.424Z,64.80
2019-03-05T10:16:37.764Z,63.90
2019-03-05T10:20:49.569Z,63.30
2019-03-05T10:25:05.904Z,62.10
2019-03-05T10:29:15.062Z,59.90
2019-03-05T10:33:26.520Z,59.90
2019-03-05T10:37:37.679Z,60.00
2019-03-05T10:41:48.880Z,59.90
2019-03-05T10:46:00.704Z,60.30
2019-03-05T10:50:15.706Z,60.60
2019-03-05T10:54:26.959Z,61.20
2019-03-05T10:58:38.124Z,61.00
2019-03-05T11:02:50.419Z,61.50
2019-03-05T11:07:01.652Z,62.40
2019-03-05T11:11:14.004Z,63.80
2019-03-05T11:15:28.108Z,65.30
2019-03-05T11:19:39.279Z,66.60
2019-03-05T11:23:52.893Z,66.80
2019-03-05T11:28:04.492Z,68.10
2019-03-05T11:32:15.816Z,67.80
2019-03-05T11:36:27.144Z,67.90
2019-03-05T11:40:39.398Z,67.70
2019-03-05T11:45:03.862Z,67.90
2019-03-05T11:49:03.500Z,67.90
2019-03-05T11:53:14.724Z,68.90
2019-03-05T11:57:26.016Z,69.40
2019-03-05T12:01:37.360Z,71.20
2019-03-05T12:05:47.954Z,71.10
2019-03-05T12:09:59.296Z,70.80
2019-03-05T12:14:10.466Z,71.70
2019-03-05T12:18:21.586Z,72.50
2019-03-05T12:22:32.845Z,72.90
2019-03-05T12:26:44.258Z,72.90
2019-03-05T12:30:55.488Z,73.10
2019-03-05T12:35:08.812Z,73.60
2019-03-05T12:39:21.604Z,73.00
2019-03-05T12:43:32.858Z,72.60
2019-03-05T12:47:44.461Z,72.30
2019-03-05T12:51:55.814Z,72.10
2019-03-05T12:56:07.162Z,71.60
2019-03-05T13:00:21.812Z,71.40
2019-03-05T13:04:41.225Z,71.40
2019-03-05T13:08:52.381Z,71.70
2019-03-05T13:13:03.812Z,70.30
2019-03-05T13:17:14.900Z,70.00
2019-03-05T13:21:26.056Z,70.70
2019-03-05T13:25:38.325Z,72.10
2019-03-05T13:29:49.781Z,71.20
2019-03-05T13:34:01.192Z,71.40
2019-03-05T13:38:12.683Z,71.00
2019-03-05T13:42:23.944Z,71.10
2019-03-05T13:46:35.132Z,72.30
2019-03-05T13:51:09.650Z,72.00
2019-03-05T13:55:40.501Z,71.70
2019-03-05T13:59:51.778Z,72.00
2019-03-05T14:04:16.678Z,69.70
2019-03-05T14:08:45.821Z,68.30
2019-03-05T14:12:57.124Z,67.10
2019-03-05T14:17:22.022Z,66.10
2019-03-05T14:21:33.247Z,65.30
2019-03-05T14:25:43.903Z,63.60
2019-03-05T14:29:55.024Z,63.70
2019-03-05T14:34:06.436Z,64.10
2019-03-05T14:38:18.264Z,64.40
2019-03-05T14:42:30.201Z,64.90
2019-03-05T14:46:41.929Z,64.40
2019-03-05T14:50:54.261Z,63.70
2019-03-05T14:55:08.409Z,65.10
2019-03-05T14:59:19.773Z,64.90
2019-03-05T15:03:30.990Z,71.00
2019-03-05T15:07:43.697Z,77.00
2019-03-05T15:11:56.554Z,79.30
2019-03-05T15:16:07.774Z,77.50
2019-03-05T15:20:19.154Z,78.40
2019-03-05T15:24:33.075Z,78.20
2019-03-05T15:28:55.732Z,76.90
2019-03-05T15:32:57.264Z,76.00
2019-03-05T15:37:08.511Z,74.00
2019-03-05T15:41:21.118Z,72.00
2019-03-05T15:45:32.343Z,73.20
2019-03-05T15:49:43.521Z,71.70
2019-03-05T15:53:54.884Z,70.20
2019-03-05T15:58:06.538Z,69.20
2019-03-05T16:02:19.464Z,68.80
2019-03-05T16:06:34.036Z,67.30
2019-03-05T16:10:43.453Z,66.40
2019-03-05T16:14:54.641Z,67.10
2019-03-05T16:19:04.926Z,67.00
2019-03-05T16:23:16.841Z,66.70
2019-03-05T16:27:30.055Z,67.40
2019-03-05T16:31:45.377Z,67.80
2019-03-05T16:36:13.883Z,68.20
2019-03-05T16:40:29.344Z,68.10
2019-03-05T16:44:51.076Z,68.70
2019-03-05T16:49:20.090Z,68.80
2019-03-05T16:53:33.130Z,68.60
2019-03-05T16:57:51.875Z,69.40
2019-03-05T17:02:07.284Z,69.90
2019-03-05T17:06:31.809Z,70.50
2019-03-05T17:10:50.500Z,71.20
2019-03-05T17:15:01.829Z,71.10
2019-03-05T17:19:13.533Z,71.10
2019-03-05T17:23:25.192Z,70.70
2019-03-05T17:27:36.773Z,69.70
2019-03-05T17:31:48.153Z,69.30
2019-03-05T17:35:59.257Z,70.00
2019-03-05T17:40:12.694Z,70.30
2019-03-05T17:44:23.972Z,69.60
2019-03-05T17:48:35.464Z,69.00
2019-03-05T17:52:48.775Z,68.40
2019-03-05T17:57:00.056Z,68.30
2019-03-05T18:01:11.272Z,67.80
2019-03-05T18:05:22.697Z,67.70
2019-03-05T18:09:34.531Z,67.70
2019-03-05T18:13:46.018Z,67.90
2019-03-05T18:17:57.635Z,68.30
2019-03-05T18:22:09.498Z,68.40
2019-03-05T18:26:21.310Z,68.30
2019-03-05T18:30:36.454Z,68.40
2019-03-05T18:34:48.919Z,68.50
2019-03-05T18:39:00.139Z,68.80
2019-03-05T18:43:11.394Z,68.90
2019-03-05T18:47:24.092Z,69.10
2019-03-05T18:51:35.179Z,69.20
2019-03-05T18:55:45.997Z,69.20
2019-03-05T18:59:57.916Z,68.90
2019-03-05T19:04:09.341Z,69.00
2019-03-05T19:08:21.252Z,69.30
2019-03-05T19:12:32.405Z,69.70
2019-03-05T19:16:44.515Z,70.20
2019-03-05T19:20:55.733Z,70.60
2019-03-05T19:25:12.952Z,70.70
2019-03-05T19:29:24.069Z,71.20
2019-03-05T19:33:35.843Z,71.50
2019-03-05T19:37:47.492Z,71.60
2019-03-05T19:41:58.978Z,72.00
2019-03-05T19:46:10.140Z,72.30
2019-03-05T19:50:23.508Z,73.60
2019-03-05T19:54:34.698Z,73.30
2019-03-05T19:58:45.962Z,73.90
2019-03-05T20:02:57.226Z,74.80
2019-03-05T20:07:08.471Z,76.50
2019-03-05T20:11:19.602Z,78.00
2019-03-05T20:15:32.272Z,78.90
2019-03-05T20:19:44.401Z,79.90
2019-03-05T20:23:55.648Z,80.90
2019-03-05T20:28:08.141Z,81.60
2019-03-05T20:32:19.401Z,82.40
2019-03-05T20:36:30.850Z,83.20
2019-03-05T20:40:42.182Z,83.70
2019-03-05T20:44:54.972Z,84.00
2019-03-05T20:49:06.366Z,84.50
2019-03-05T20:53:21.560Z,84.70
2019-03-05T20:57:34.124Z,85.10
2019-03-05T21:01:45.549Z,85.50
2019-03-05T21:05:58.335Z,85.80
2019-03-05T21:10:11.270Z,86.20
2019-03-05T21:14:22.857Z,86.60
2019-03-05T21:18:34.193Z,86.80
2019-03-05T21:22:45.708Z,87.20
2019-03-05T21:26:58.577Z,87.40
2019-03-05T21:31:11.368Z,87.70
2019-03-05T21:35:22.545Z,88.10
2019-03-05T21:39:33.692Z,88.40
2019-03-05T21:43:44.882Z,88.60
2019-03-05T21:47:56.094Z,88.80
2019-03-05T21:52:07.306Z,88.90
2019-03-05T21:56:17.435Z,88.90
2019-03-05T22:00:35.131Z,89.00
2019-03-05T22:04:46.740Z,89.30
2019-03-05T22:08:58.509Z,89.60
2019-03-05T22:13:08.599Z,89.60
2019-03-05T22:17:19.754Z,89.80
2019-03-05T22:21:30.965Z,90.00
2019-03-05T22:25:42.081Z,90.00
2019-03-05T22:29:53.194Z,90.20
2019-03-05T22:34:06.158Z,90.30
2019-03-05T22:38:17.515Z,90.40
2019-03-05T22:42:28.668Z,90.40
2019-03-05T22:46:39.783Z,90.60
2019-03-05T22:50:50.931Z,90.60
2019-03-05T22:55:02.088Z,91.10
2019-03-05T22:59:13.344Z,90.70
2019-03-05T23:03:27.204Z,90.80
2019-03-05T23:07:38.392Z,90.90
2019-03-05T23:11:51.215Z,91.00
2019-03-05T23:16:02.697Z,91.00
2019-03-05T23:20:16.234Z,91.20
2019-03-05T23:24:28.653Z,91.20
2019-03-05T23:28:39.949Z,91.30
2019-03-05T23:32:53.282Z,91.30
2019-03-05T23:37:05.469Z,91.30
2019-03-05T23:41:16.786Z,91.40
2019-03-05T23:45:29.207Z,91.40
2019-03-05T23:49:40.608Z,91.40
2019-03-05T23:53:54.551Z,91.40
2019-03-05T23:58:05.949Z,91.40
